sensor_id;sensor_type;location;lat;lon;timestamp;temperature;humidity
19947;DHT22;10135;50.702;7.276;2022-11-20T06:32:01;7.20;63.00
19947;DHT22;10135;50.702;7.276;2022-11-20T06:34:02;7.20;63.00
19947;DHT22;10135;50.702;7.276;2022-11-20T06:36:03;7.20;63.00
19947;DHT22;10135;50.702;7.276;2022-11-20T06:38:04;7.20;63.00
19947;DHT22;10135;50.702;7.276;2022-11-20T06:40:05;7.10;62.90
19947;DHT22;10135;50.702;7.276;2022-11-20T06:42:07;7.10;62.90
19947;DHT22;10135;50.702;7.276;2022-11-20T06:44:08;7.10;62.90
19947;DHT22;10135;50.702;7.276;2022-11-20T06:46:10;7.10;63.00
19947;DHT22;10135;50.702;7.276;2022-11-20T06:48:12;7.10;63.00
19947;DHT22;10135;50.702;7.276;2022-11-20T06:50:13;7.00;62.90
19947;DHT22;10135;50.702;7.276;2022-11-20T06:52:14;7.00;63.00
19947;DHT22;10135;50.702;7.276;2022-11-20T06:54:14;7.00;63.00
19947;DHT22;10135;50.702;7.276;2022-11-20T06:56:15;6.90;63.00
19947;DHT22;10135;50.702;7.276;2022-11-20T06:58:16;7.00;63.10
19947;DHT22;10135;50.702;7.276;2022-11-20T07:00:17;6.90;63.00
19947;DHT22;10135;50.702;7.276;2022-11-20T07:02:18;6.90;63.00
19947;DHT22;10135;50.702;7.276;2022-11-20T07:04:18;6.90;63.10
19947;DHT22;10135;50.702;7.276;2022-11-20T07:06:19;6.90;63.10
19947;DHT22;10135;50.702;7.276;2022-11-20T07:08:20;6.90;63.10
19947;DHT22;10135;50.702;7.276;2022-11-20T07:10:20;6.90;63.10
19947;DHT22;10135;50.702;7.276;2022-11-20T07:12:21;6.90;63.20
19947;DHT22;10135;50.702;7.276;2022-11-20T07:14:22;6.90;63.20
19947;DHT22;10135;50.702;7.276;2022-11-20T07:16:22;6.90;63.10
19947;DHT22;10135;50.702;7.276;2022-11-20T07:18:23;6.90;63.20
19947;DHT22;10135;50.702;7.276;2022-11-20T07:20:24;6.90;63.10
19947;DHT22;10135;50.702;7.276;2022-11-20T07:22:24;6.90;63.10
19947;DHT22;10135;50.702;7.276;2022-11-20T07:24:25;6.90;63.10
19947;DHT22;10135;50.702;7.276;2022-11-20T07:26:25;6.90;63.20
19947;DHT22;10135;50.702;7.276;2022-11-20T07:28:26;6.90;63.20
19947;DHT22;10135;50.702;7.276;2022-11-20T07:30:27;6.90;63.10
19947;DHT22;10135;50.702;7.276;2022-11-20T07:32:28;6.90;63.30
19947;DHT22;10135;50.702;7.276;2022-11-20T07:34:29;6.90;63.30
19947;DHT22;10135;50.702;7.276;2022-11-20T07:36:30;6.90;63.30
19947;DHT22;10135;50.702;7.276;2022-11-20T07:38:30;6.90;63.20
19947;DHT22;10135;50.702;7.276;2022-11-20T07:40:31;6.90;63.20
19947;DHT22;10135;50.702;7.276;2022-11-20T07:42:32;6.90;63.20
19947;DHT22;10135;50.702;7.276;2022-11-20T07:44:32;6.90;63.30
19947;DHT22;10135;50.702;7.276;2022-11-20T07:46:33;6.90;63.30
19947;DHT22;10135;50.702;7.276;2022-11-20T07:48:34;6.90;63.30
19947;DHT22;10135;50.702;7.276;2022-11-20T07:50:34;6.90;63.30
19947;DHT22;10135;50.702;7.276;2022-11-20T07:52:35;6.90;63.30
19947;DHT22;10135;50.702;7.276;2022-11-20T07:54:36;7.00;63.30
19947;DHT22;10135;50.702;7.276;2022-11-20T07:56:36;7.00;63.30
19947;DHT22;10135;50.702;7.276;2022-11-20T07:58:37;7.00;63.30
19947;DHT22;10135;50.702;7.276;2022-11-20T08:00:38;7.00;63.30
19947;DHT22;10135;50.702;7.276;2022-11-20T08:02:39;7.00;63.30
19947;DHT22;10135;50.702;7.276;2022-11-20T08:04:40;7.10;63.30
19947;DHT22;10135;50.702;7.276;2022-11-20T08:06:41;7.10;63.30
19947;DHT22;10135;50.702;7.276;2022-11-20T08:08:42;7.10;63.30
19947;DHT22;10135;50.702;7.276;2022-11-20T08:10:43;7.20;63.30
19947;DHT22;10135;50.702;7.276;2022-11-20T08:12:48;7.20;63.40
19947;DHT22;10135;50.702;7.276;2022-11-20T08:15:09;7.20;63.40
19947;DHT22;10135;50.702;7.276;2022-11-20T08:17:10;7.20;63.20
19947;DHT22;10135;50.702;7.276;2022-11-20T08:19:11;7.20;63.20
19947;DHT22;10135;50.702;7.276;2022-11-20T08:21:13;7.30;63.40
19947;DHT22;10135;50.702;7.276;2022-11-20T08:23:14;7.30;64.10
19947;DHT22;10135;50.702;7.276;2022-11-20T08:25:14;7.30;63.40
19947;DHT22;10135;50.702;7.276;2022-11-20T08:27:15;7.30;63.30
19947;DHT22;10135;50.702;7.276;2022-11-20T08:29:16;7.40;63.40
19947;DHT22;10135;50.702;7.276;2022-11-20T08:31:16;7.40;63.30
19947;DHT22;10135;50.702;7.276;2022-11-20T08:33:17;7.40;63.40
19947;DHT22;10135;50.702;7.276;2022-11-20T08:35:18;7.40;63.30
19947;DHT22;10135;50.702;7.276;2022-11-20T08:37:19;7.40;63.30
19947;DHT22;10135;50.702;7.276;2022-11-20T08:39:20;7.50;63.40
19947;DHT22;10135;50.702;7.276;2022-11-20T08:41:21;7.50;63.30
19947;DHT22;10135;50.702;7.276;2022-11-20T08:43:28;7.50;63.30
19947;DHT22;10135;50.702;7.276;2022-11-20T08:45:29;7.60;63.40
19947;DHT22;10135;50.702;7.276;2022-11-20T08:47:29;7.60;63.40
19947;DHT22;10135;50.702;7.276;2022-11-20T08:49:30;7.60;63.40
19947;DHT22;10135;50.702;7.276;2022-11-20T08:51:31;7.70;63.40
19947;DHT22;10135;50.702;7.276;2022-11-20T08:53:31;7.70;63.50
19947;DHT22;10135;50.702;7.276;2022-11-20T08:55:32;7.70;63.30
19947;DHT22;10135;50.702;7.276;2022-11-20T08:57:36;7.70;63.30
19947;DHT22;10135;50.702;7.276;2022-11-20T08:59:37;7.70;63.20
19947;DHT22;10135;50.702;7.276;2022-11-20T09:01:38;7.70;63.30
19947;DHT22;10135;50.702;7.276;2022-11-20T09:03:39;7.80;63.30
19947;DHT22;10135;50.702;7.276;2022-11-20T09:05:39;7.80;63.30
19947;DHT22;10135;50.702;7.276;2022-11-20T09:07:40;7.80;63.30
19947;DHT22;10135;50.702;7.276;2022-11-20T09:09:42;7.90;63.30
19947;DHT22;10135;50.702;7.276;2022-11-20T09:11:42;7.90;63.30
19947;DHT22;10135;50.702;7.276;2022-11-20T09:13:43;7.90;63.10
19947;DHT22;10135;50.702;7.276;2022-11-20T09:15:44;7.90;63.30
19947;DHT22;10135;50.702;7.276;2022-11-20T09:17:55;8.00;63.30
19947;DHT22;10135;50.702;7.276;2022-11-20T09:19:58;8.00;63.30
19947;DHT22;10135;50.702;7.276;2022-11-20T09:21:59;8.00;63.10
19947;DHT22;10135;50.702;7.276;2022-11-20T09:24:00;8.00;63.10
19947;DHT22;10135;50.702;7.276;2022-11-20T09:26:10;8.00;63.10
19947;DHT22;10135;50.702;7.276;2022-11-20T09:28:11;8.10;63.10
19947;DHT22;10135;50.702;7.276;2022-11-20T09:30:16;8.10;63.00
19947;DHT22;10135;50.702;7.276;2022-11-20T09:32:16;8.10;63.10
19947;DHT22;10135;50.702;7.276;2022-11-20T09:34:17;8.10;63.00
19947;DHT22;10135;50.702;7.276;2022-11-20T09:36:18;8.10;63.00
19947;DHT22;10135;50.702;7.276;2022-11-20T09:38:19;8.10;63.10
19947;DHT22;10135;50.702;7.276;2022-11-20T09:40:22;8.10;63.10
19947;DHT22;10135;50.702;7.276;2022-11-20T09:42:37;8.20;63.20
19947;DHT22;10135;50.702;7.276;2022-11-20T09:47:39;8.20;63.10
19947;DHT22;10135;50.702;7.276;2022-11-20T09:50:07;8.20;63.10
19947;DHT22;10135;50.702;7.276;2022-11-20T09:54:53;8.20;63.10
19947;DHT22;10135;50.702;7.276;2022-11-20T09:57:12;8.20;63.00
19947;DHT22;10135;50.702;7.276;2022-11-20T10:01:39;8.30;63.20
19947;DHT22;10135;50.702;7.276;2022-11-20T10:06:10;8.30;63.20
19947;DHT22;10135;50.702;7.276;2022-11-20T10:08:28;8.30;63.20
19947;DHT22;10135;50.702;7.276;2022-11-20T10:10:54;8.30;63.30
19947;DHT22;10135;50.702;7.276;2022-11-20T10:13:27;8.40;63.40
19947;DHT22;10135;50.702;7.276;2022-11-20T10:18:18;8.50;63.30
19947;DHT22;10135;50.702;7.276;2022-11-20T10:26:00;8.70;63.20
19947;DHT22;10135;50.702;7.276;2022-11-20T10:30:44;8.80;63.10
19947;DHT22;10135;50.702;7.276;2022-11-20T10:32:50;8.80;63.10
19947;DHT22;10135;50.702;7.276;2022-11-20T10:35:01;8.80;63.10
19947;DHT22;10135;50.702;7.276;2022-11-20T10:37:17;8.80;63.70
19947;DHT22;10135;50.702;7.276;2022-11-20T10:39:41;8.80;62.90
19947;DHT22;10135;50.702;7.276;2022-11-20T10:41:56;8.90;62.80
19947;DHT22;10135;50.702;7.276;2022-11-20T10:44:09;8.90;62.80
19947;DHT22;10135;50.702;7.276;2022-11-20T10:46:45;8.90;62.70
19947;DHT22;10135;50.702;7.276;2022-11-20T10:48:46;8.90;62.60
19947;DHT22;10135;50.702;7.276;2022-11-20T10:56:07;9.00;62.80
19947;DHT22;10135;50.702;7.276;2022-11-20T10:58:27;9.00;62.70
19947;DHT22;10135;50.702;7.276;2022-11-20T11:00:38;9.00;62.70
19947;DHT22;10135;50.702;7.276;2022-11-20T11:02:44;9.00;62.70
19947;DHT22;10135;50.702;7.276;2022-11-20T11:04:52;8.90;62.60
19947;DHT22;10135;50.702;7.276;2022-11-20T11:06:58;9.00;62.60
19947;DHT22;10135;50.702;7.276;2022-11-20T11:09:15;9.00;62.60
19947;DHT22;10135;50.702;7.276;2022-11-20T11:11:24;9.00;62.60
19947;DHT22;10135;50.702;7.276;2022-11-20T11:13:31;9.00;62.60
19947;DHT22;10135;50.702;7.276;2022-11-20T11:15:40;9.00;62.60
19947;DHT22;10135;50.702;7.276;2022-11-20T11:17:46;9.00;62.40
19947;DHT22;10135;50.702;7.276;2022-11-20T11:20:07;9.00;62.50
19947;DHT22;10135;50.702;7.276;2022-11-20T11:22:18;9.00;62.40
19947;DHT22;10135;50.702;7.276;2022-11-20T11:24:27;9.00;62.60
19947;DHT22;10135;50.702;7.276;2022-11-20T11:26:29;9.00;62.60
19947;DHT22;10135;50.702;7.276;2022-11-20T11:28:31;9.00;62.60
19947;DHT22;10135;50.702;7.276;2022-11-20T11:30:43;9.00;62.60
19947;DHT22;10135;50.702;7.276;2022-11-20T11:32:44;9.00;62.50
19947;DHT22;10135;50.702;7.276;2022-11-20T11:34:58;9.00;62.60
19947;DHT22;10135;50.702;7.276;2022-11-20T11:37:21;9.00;62.60
19947;DHT22;10135;50.702;7.276;2022-11-20T11:39:22;9.10;62.50
19947;DHT22;10135;50.702;7.276;2022-11-20T11:41:28;9.10;62.60
19947;DHT22;10135;50.702;7.276;2022-11-20T11:43:35;9.10;62.50
19947;DHT22;10135;50.702;7.276;2022-11-20T11:45:55;9.10;62.50
19947;DHT22;10135;50.702;7.276;2022-11-20T11:48:01;9.20;62.70
19947;DHT22;10135;50.702;7.276;2022-11-20T11:56:33;9.30;62.50
19947;DHT22;10135;50.702;7.276;2022-11-20T11:58:52;9.30;62.50
19947;DHT22;10135;50.702;7.276;2022-11-20T12:01:28;9.30;62.50
19947;DHT22;10135;50.702;7.276;2022-11-20T12:03:39;9.30;62.50
19947;DHT22;10135;50.702;7.276;2022-11-20T12:05:46;9.40;62.50
19947;DHT22;10135;50.702;7.276;2022-11-20T12:08:27;9.30;62.40
19947;DHT22;10135;50.702;7.276;2022-11-20T12:13:04;9.40;62.50
19947;DHT22;10135;50.702;7.276;2022-11-20T12:15:26;9.40;62.50
19947;DHT22;10135;50.702;7.276;2022-11-20T12:17:30;9.40;62.50
19947;DHT22;10135;50.702;7.276;2022-11-20T12:19:33;9.40;62.50
19947;DHT22;10135;50.702;7.276;2022-11-20T12:21:56;9.50;62.50
19947;DHT22;10135;50.702;7.276;2022-11-20T12:36:33;9.60;62.70
19947;DHT22;10135;50.702;7.276;2022-11-20T12:39:07;9.60;62.60
19947;DHT22;10135;50.702;7.276;2022-11-20T12:41:43;9.70;62.70
19947;DHT22;10135;50.702;7.276;2022-11-20T12:47:13;9.70;62.60
19947;DHT22;10135;50.702;7.276;2022-11-20T12:49:51;9.70;62.60
19947;DHT22;10135;50.702;7.276;2022-11-20T12:52:34;9.70;62.60
19947;DHT22;10135;50.702;7.276;2022-11-20T12:54:46;9.80;62.60
19947;DHT22;10135;50.702;7.276;2022-11-20T12:57:29;9.80;62.60
19947;DHT22;10135;50.702;7.276;2022-11-20T13:05:18;9.80;62.70
19947;DHT22;10135;50.702;7.276;2022-11-20T13:07:24;9.80;62.60
19947;DHT22;10135;50.702;7.276;2022-11-20T13:09:27;9.80;62.60
19947;DHT22;10135;50.702;7.276;2022-11-20T13:11:37;9.80;62.60
19947;DHT22;10135;50.702;7.276;2022-11-20T13:14:21;9.80;62.60
19947;DHT22;10135;50.702;7.276;2022-11-20T13:19:25;9.90;62.80
19947;DHT22;10135;50.702;7.276;2022-11-20T13:21:39;9.90;62.60
19947;DHT22;10135;50.702;7.276;2022-11-20T13:23:41;9.90;62.80
19947;DHT22;10135;50.702;7.276;2022-11-20T13:25:42;9.90;62.80
19947;DHT22;10135;50.702;7.276;2022-11-20T13:27:48;9.90;62.80
19947;DHT22;10135;50.702;7.276;2022-11-20T13:30:12;9.90;62.80
19947;DHT22;10135;50.702;7.276;2022-11-20T13:32:19;9.90;62.90
19947;DHT22;10135;50.702;7.276;2022-11-20T13:34:26;9.90;62.80
19947;DHT22;10135;50.702;7.276;2022-11-20T13:36:28;9.90;62.80
19947;DHT22;10135;50.702;7.276;2022-11-20T13:38:48;9.90;62.90
19947;DHT22;10135;50.702;7.276;2022-11-20T13:40:53;10.00;63.00
19947;DHT22;10135;50.702;7.276;2022-11-20T13:44:05;10.00;62.90
19947;DHT22;10135;50.702;7.276;2022-11-20T13:45:37;10.00;63.00
19947;DHT22;10135;50.702;7.276;2022-11-20T13:47:48;10.00;62.90
19947;DHT22;10135;50.702;7.276;2022-11-20T13:49:51;10.00;63.70
19947;DHT22;10135;50.702;7.276;2022-11-20T13:52:18;10.00;62.80
19947;DHT22;10135;50.702;7.276;2022-11-20T13:54:52;10.00;63.00
19947;DHT22;10135;50.702;7.276;2022-11-20T14:02:01;10.10;63.80
19947;DHT22;10135;50.702;7.276;2022-11-20T14:04:07;10.00;62.90
19947;DHT22;10135;50.702;7.276;2022-11-20T14:06:22;10.00;63.00
19947;DHT22;10135;50.702;7.276;2022-11-20T14:08:38;10.00;63.00
19947;DHT22;10135;50.702;7.276;2022-11-20T14:10:41;10.10;63.00
19947;DHT22;10135;50.702;7.276;2022-11-20T14:12:42;10.10;62.90
19947;DHT22;10135;50.702;7.276;2022-11-20T14:14:53;10.10;63.00
19947;DHT22;10135;50.702;7.276;2022-11-20T14:17:08;10.10;63.20
19947;DHT22;10135;50.702;7.276;2022-11-20T14:19:28;10.10;63.20
19947;DHT22;10135;50.702;7.276;2022-11-20T14:21:30;10.20;63.10
19947;DHT22;10135;50.702;7.276;2022-11-20T14:23:31;10.10;63.00
19947;DHT22;10135;50.702;7.276;2022-11-20T14:25:32;10.10;63.00
19947;DHT22;10135;50.702;7.276;2022-11-20T14:27:35;10.10;63.00
19947;DHT22;10135;50.702;7.276;2022-11-20T14:29:38;10.10;63.00
19947;DHT22;10135;50.702;7.276;2022-11-20T14:31:42;10.20;63.20
19947;DHT22;10135;50.702;7.276;2022-11-20T14:33:44;10.20;63.20
19947;DHT22;10135;50.702;7.276;2022-11-20T14:35:52;10.20;63.20
19947;DHT22;10135;50.702;7.276;2022-11-20T14:37:55;10.20;63.90
19947;DHT22;10135;50.702;7.276;2022-11-20T14:39:57;10.20;63.20
19947;DHT22;10135;50.702;7.276;2022-11-20T14:41:59;10.20;63.20
19947;DHT22;10135;50.702;7.276;2022-11-20T14:44:00;10.20;63.20
19947;DHT22;10135;50.702;7.276;2022-11-20T14:46:04;10.20;63.20
19947;DHT22;10135;50.702;7.276;2022-11-20T14:48:09;10.20;63.20
19947;DHT22;10135;50.702;7.276;2022-11-20T14:50:28;10.20;63.20
19947;DHT22;10135;50.702;7.276;2022-11-20T14:52:29;10.20;63.40
19947;DHT22;10135;50.702;7.276;2022-11-20T14:54:31;10.20;63.10
19947;DHT22;10135;50.702;7.276;2022-11-20T14:56:33;10.20;63.20
19947;DHT22;10135;50.702;7.276;2022-11-20T14:58:34;10.20;63.20
19947;DHT22;10135;50.702;7.276;2022-11-20T15:00:35;10.20;63.30
19947;DHT22;10135;50.702;7.276;2022-11-20T15:02:41;10.20;63.20
19947;DHT22;10135;50.702;7.276;2022-11-20T15:04:49;10.30;63.40
19947;DHT22;10135;50.702;7.276;2022-11-20T15:06:56;10.30;63.40
19947;DHT22;10135;50.702;7.276;2022-11-20T15:08:59;10.30;63.30
19947;DHT22;10135;50.702;7.276;2022-11-20T15:10:59;10.30;63.30
19947;DHT22;10135;50.702;7.276;2022-11-20T15:13:05;10.30;63.40
19947;DHT22;10135;50.702;7.276;2022-11-20T15:15:12;10.30;63.40
19947;DHT22;10135;50.702;7.276;2022-11-20T15:17:19;10.30;63.40
19947;DHT22;10135;50.702;7.276;2022-11-20T15:19:24;10.30;63.40
19947;DHT22;10135;50.702;7.276;2022-11-20T15:21:26;10.30;63.50
19947;DHT22;10135;50.702;7.276;2022-11-20T15:23:27;10.30;63.40
19947;DHT22;10135;50.702;7.276;2022-11-20T15:25:29;10.30;63.30
19947;DHT22;10135;50.702;7.276;2022-11-20T15:27:30;10.30;63.40
19947;DHT22;10135;50.702;7.276;2022-11-20T15:29:31;10.30;63.30
19947;DHT22;10135;50.702;7.276;2022-11-20T15:31:32;10.40;63.40
19947;DHT22;10135;50.702;7.276;2022-11-20T15:33:33;10.30;63.30
19947;DHT22;10135;50.702;7.276;2022-11-20T15:35:34;10.30;63.30
19947;DHT22;10135;50.702;7.276;2022-11-20T15:37:34;10.30;63.30
19947;DHT22;10135;50.702;7.276;2022-11-20T15:39:35;10.30;63.40
19947;DHT22;10135;50.702;7.276;2022-11-20T15:41:36;10.30;63.20
19947;DHT22;10135;50.702;7.276;2022-11-20T15:43:37;10.30;63.30
19947;DHT22;10135;50.702;7.276;2022-11-20T15:46:06;10.30;63.20
19947;DHT22;10135;50.702;7.276;2022-11-20T15:48:14;10.30;63.30
19947;DHT22;10135;50.702;7.276;2022-11-20T15:50:17;10.30;63.30
19947;DHT22;10135;50.702;7.276;2022-11-20T15:52:18;10.20;63.20
19947;DHT22;10135;50.702;7.276;2022-11-20T15:54:21;10.20;63.30
19947;DHT22;10135;50.702;7.276;2022-11-20T15:56:23;10.20;63.30
19947;DHT22;10135;50.702;7.276;2022-11-20T15:58:24;10.20;63.30
19947;DHT22;10135;50.702;7.276;2022-11-20T16:00:25;10.20;63.30
19947;DHT22;10135;50.702;7.276;2022-11-20T16:02:26;10.10;63.40
19947;DHT22;10135;50.702;7.276;2022-11-20T16:04:26;10.10;63.40
19947;DHT22;10135;50.702;7.276;2022-11-20T16:06:27;10.10;63.40
19947;DHT22;10135;50.702;7.276;2022-11-20T16:08:27;10.10;63.40
19947;DHT22;10135;50.702;7.276;2022-11-20T16:10:28;10.00;63.30
19947;DHT22;10135;50.702;7.276;2022-11-20T16:12:29;10.00;63.40
19947;DHT22;10135;50.702;7.276;2022-11-20T16:14:48;10.00;63.50
19947;DHT22;10135;50.702;7.276;2022-11-20T16:17:07;10.00;64.30
19947;DHT22;10135;50.702;7.276;2022-11-20T16:19:11;10.00;63.50
19947;DHT22;10135;50.702;7.276;2022-11-20T16:21:13;10.00;63.60
19947;DHT22;10135;50.702;7.276;2022-11-20T16:23:14;10.00;63.60
19947;DHT22;10135;50.702;7.276;2022-11-20T16:25:15;10.00;63.80
19947;DHT22;10135;50.702;7.276;2022-11-20T16:27:16;9.90;63.70
19947;DHT22;10135;50.702;7.276;2022-11-20T16:29:17;9.90;63.70
19947;DHT22;10135;50.702;7.276;2022-11-20T16:31:18;9.90;63.80
19947;DHT22;10135;50.702;7.276;2022-11-20T16:33:20;9.90;63.80
19947;DHT22;10135;50.702;7.276;2022-11-20T16:35:20;9.90;63.90
19947;DHT22;10135;50.702;7.276;2022-11-20T16:37:21;9.80;64.50
19947;DHT22;10135;50.702;7.276;2022-11-20T16:39:21;9.90;63.80
19947;DHT22;10135;50.702;7.276;2022-11-20T16:41:23;9.80;63.80
19947;DHT22;10135;50.702;7.276;2022-11-20T16:43:25;9.80;63.90
19947;DHT22;10135;50.702;7.276;2022-11-20T16:45:26;9.80;63.90
19947;DHT22;10135;50.702;7.276;2022-11-20T16:47:27;9.80;63.90
19947;DHT22;10135;50.702;7.276;2022-11-20T16:49:27;9.80;63.90
19947;DHT22;10135;50.702;7.276;2022-11-20T16:51:30;9.80;64.10
19947;DHT22;10135;50.702;7.276;2022-11-20T16:53:32;9.70;64.10
19947;DHT22;10135;50.702;7.276;2022-11-20T16:55:33;9.70;64.10
19947;DHT22;10135;50.702;7.276;2022-11-20T16:57:34;9.70;64.10
19947;DHT22;10135;50.702;7.276;2022-11-20T16:59:35;9.70;64.10
19947;DHT22;10135;50.702;7.276;2022-11-20T17:01:35;9.70;64.20
19947;DHT22;10135;50.702;7.276;2022-11-20T17:03:40;9.70;64.20
19947;DHT22;10135;50.702;7.276;2022-11-20T17:05:41;9.70;64.30
19947;DHT22;10135;50.702;7.276;2022-11-20T17:07:42;9.70;64.30
19947;DHT22;10135;50.702;7.276;2022-11-20T17:09:43;9.70;64.30
19947;DHT22;10135;50.702;7.276;2022-11-20T17:11:43;9.70;64.40
19947;DHT22;10135;50.702;7.276;2022-11-20T17:13:45;9.70;64.40
19947;DHT22;10135;50.702;7.276;2022-11-20T17:15:46;9.70;64.40
19947;DHT22;10135;50.702;7.276;2022-11-20T17:17:47;9.70;64.50
19947;DHT22;10135;50.702;7.276;2022-11-20T17:19:47;9.70;64.50
19947;DHT22;10135;50.702;7.276;2022-11-20T17:21:48;9.70;64.60
19947;DHT22;10135;50.702;7.276;2022-11-20T17:23:49;9.70;64.60
19947;DHT22;10135;50.702;7.276;2022-11-20T17:25:49;9.70;64.60
19947;DHT22;10135;50.702;7.276;2022-11-20T17:27:50;9.70;64.60
19947;DHT22;10135;50.702;7.276;2022-11-20T17:29:51;9.70;64.70
19947;DHT22;10135;50.702;7.276;2022-11-20T17:31:54;9.70;64.60
19947;DHT22;10135;50.702;7.276;2022-11-20T17:33:55;9.70;64.60
19947;DHT22;10135;50.702;7.276;2022-11-20T17:35:55;9.70;64.80
19947;DHT22;10135;50.702;7.276;2022-11-20T17:37:56;9.70;64.80
19947;DHT22;10135;50.702;7.276;2022-11-20T17:39:57;9.70;64.80
19947;DHT22;10135;50.702;7.276;2022-11-20T17:41:57;9.70;64.80
19947;DHT22;10135;50.702;7.276;2022-11-20T17:44:16;9.70;64.70
19947;DHT22;10135;50.702;7.276;2022-11-20T17:46:19;9.70;64.70
19947;DHT22;10135;50.702;7.276;2022-11-20T17:48:23;9.70;64.80
19947;DHT22;10135;50.702;7.276;2022-11-20T17:50:24;9.70;64.80
19947;DHT22;10135;50.702;7.276;2022-11-20T17:52:24;9.70;64.80
19947;DHT22;10135;50.702;7.276;2022-11-20T17:54:25;9.70;64.80
19947;DHT22;10135;50.702;7.276;2022-11-20T17:56:30;9.70;64.90
19947;DHT22;10135;50.702;7.276;2022-11-20T17:58:50;9.70;65.00
19947;DHT22;10135;50.702;7.276;2022-11-20T18:00:50;9.70;64.90
19947;DHT22;10135;50.702;7.276;2022-11-20T18:02:51;9.70;64.80
19947;DHT22;10135;50.702;7.276;2022-11-20T18:04:52;9.70;65.00
19947;DHT22;10135;50.702;7.276;2022-11-20T18:06:52;9.70;64.90
19947;DHT22;10135;50.702;7.276;2022-11-20T18:08:57;9.70;64.90
19947;DHT22;10135;50.702;7.276;2022-11-20T18:11:25;9.70;64.90
19947;DHT22;10135;50.702;7.276;2022-11-20T18:14:17;9.70;65.20
19947;DHT22;10135;50.702;7.276;2022-11-20T18:17:03;9.70;65.40
19947;DHT22;10135;50.702;7.276;2022-11-20T18:23:06;9.70;65.10
19947;DHT22;10135;50.702;7.276;2022-11-20T18:25:59;9.70;65.40
19947;DHT22;10135;50.702;7.276;2022-11-20T18:31:54;9.70;65.40
19947;DHT22;10135;50.702;7.276;2022-11-20T18:33:58;9.70;65.00
19947;DHT22;10135;50.702;7.276;2022-11-20T18:36:27;9.70;64.90
19947;DHT22;10135;50.702;7.276;2022-11-20T18:45:37;9.70;65.40
19947;DHT22;10135;50.702;7.276;2022-11-20T18:48:07;9.70;65.60
19947;DHT22;10135;50.702;7.276;2022-11-20T18:54:35;9.70;65.20
19947;DHT22;10135;50.702;7.276;2022-11-20T18:57:27;9.70;65.40
19947;DHT22;10135;50.702;7.276;2022-11-20T19:02:23;9.70;65.30
19947;DHT22;10135;50.702;7.276;2022-11-20T19:04:33;9.80;65.20
19947;DHT22;10135;50.702;7.276;2022-11-20T19:06:43;9.80;65.30
19947;DHT22;10135;50.702;7.276;2022-11-20T19:08:49;9.80;65.50
19947;DHT22;10135;50.702;7.276;2022-11-20T19:10:49;9.80;65.30
19947;DHT22;10135;50.702;7.276;2022-11-20T19:12:50;9.80;65.40
19947;DHT22;10135;50.702;7.276;2022-11-20T19:14:51;9.80;65.30
19947;DHT22;10135;50.702;7.276;2022-11-20T19:16:52;9.90;65.40
19947;DHT22;10135;50.702;7.276;2022-11-20T19:18:52;9.90;65.40
19947;DHT22;10135;50.702;7.276;2022-11-20T19:20:53;9.90;65.40
19947;DHT22;10135;50.702;7.276;2022-11-20T19:22:54;9.90;65.40
19947;DHT22;10135;50.702;7.276;2022-11-20T19:24:54;9.90;65.50
19947;DHT22;10135;50.702;7.276;2022-11-20T19:26:55;9.90;65.40
19947;DHT22;10135;50.702;7.276;2022-11-20T19:28:56;10.00;65.50
19947;DHT22;10135;50.702;7.276;2022-11-20T19:31:09;10.00;65.50
19947;DHT22;10135;50.702;7.276;2022-11-20T19:33:14;10.00;65.80
19947;DHT22;10135;50.702;7.276;2022-11-20T19:35:14;10.00;65.50
19947;DHT22;10135;50.702;7.276;2022-11-20T19:37:15;10.10;65.50
19947;DHT22;10135;50.702;7.276;2022-11-20T19:39:16;10.00;65.50
19947;DHT22;10135;50.702;7.276;2022-11-20T19:41:19;10.10;65.60
19947;DHT22;10135;50.702;7.276;2022-11-20T19:43:33;10.10;65.60
19947;DHT22;10135;50.702;7.276;2022-11-20T19:45:34;10.10;65.50
19947;DHT22;10135;50.702;7.276;2022-11-20T19:47:34;10.10;65.50
19947;DHT22;10135;50.702;7.276;2022-11-20T19:49:35;10.10;65.60
19947;DHT22;10135;50.702;7.276;2022-11-20T19:51:37;10.10;65.60
19947;DHT22;10135;50.702;7.276;2022-11-20T19:53:39;10.20;65.70
19947;DHT22;10135;50.702;7.276;2022-11-20T19:55:40;10.20;65.70
19947;DHT22;10135;50.702;7.276;2022-11-20T19:57:42;10.20;65.70
19947;DHT22;10135;50.702;7.276;2022-11-20T19:59:43;10.20;65.70
19947;DHT22;10135;50.702;7.276;2022-11-20T20:01:43;10.20;65.70
19947;DHT22;10135;50.702;7.276;2022-11-20T20:03:45;10.20;65.80
19947;DHT22;10135;50.702;7.276;2022-11-20T20:05:47;10.20;65.70
19947;DHT22;10135;50.702;7.276;2022-11-20T20:07:47;10.30;66.40
19947;DHT22;10135;50.702;7.276;2022-11-20T20:09:48;10.20;65.70
19947;DHT22;10135;50.702;7.276;2022-11-20T20:11:49;10.30;65.80
19947;DHT22;10135;50.702;7.276;2022-11-20T20:13:49;10.30;65.70
19947;DHT22;10135;50.702;7.276;2022-11-20T20:15:50;10.30;65.70
19947;DHT22;10135;50.702;7.276;2022-11-20T20:17:51;10.40;65.80
19947;DHT22;10135;50.702;7.276;2022-11-20T20:19:52;10.40;65.80
19947;DHT22;10135;50.702;7.276;2022-11-20T20:21:53;10.40;65.70
19947;DHT22;10135;50.702;7.276;2022-11-20T20:23:54;10.40;65.70
19947;DHT22;10135;50.702;7.276;2022-11-20T20:25:56;10.40;65.70
19947;DHT22;10135;50.702;7.276;2022-11-20T20:27:56;10.40;65.70
19947;DHT22;10135;50.702;7.276;2022-11-20T20:29:57;10.40;65.70
19947;DHT22;10135;50.702;7.276;2022-11-20T20:31:58;10.40;65.70
19947;DHT22;10135;50.702;7.276;2022-11-20T20:33:59;10.40;65.70
19947;DHT22;10135;50.702;7.276;2022-11-20T20:36:00;10.40;65.80
19947;DHT22;10135;50.702;7.276;2022-11-20T20:38:01;10.40;65.80
19947;DHT22;10135;50.702;7.276;2022-11-20T20:40:01;10.50;65.60
19947;DHT22;10135;50.702;7.276;2022-11-20T20:42:02;10.50;65.60
19947;DHT22;10135;50.702;7.276;2022-11-20T20:44:03;10.50;65.60
19947;DHT22;10135;50.702;7.276;2022-11-20T20:46:23;10.50;65.60
19947;DHT22;10135;50.702;7.276;2022-11-20T20:48:24;10.50;65.60
19947;DHT22;10135;50.702;7.276;2022-11-20T20:50:25;10.50;65.60
19947;DHT22;10135;50.702;7.276;2022-11-20T20:52:25;10.50;65.60
19947;DHT22;10135;50.702;7.276;2022-11-20T20:54:26;10.50;65.60
19947;DHT22;10135;50.702;7.276;2022-11-20T20:56:27;10.50;65.60
19947;DHT22;10135;50.702;7.276;2022-11-20T20:58:28;10.50;65.60
19947;DHT22;10135;50.702;7.276;2022-11-20T21:00:29;10.60;65.70
19947;DHT22;10135;50.702;7.276;2022-11-20T21:02:30;10.60;66.30
19947;DHT22;10135;50.702;7.276;2022-11-20T21:04:31;10.60;65.60
19947;DHT22;10135;50.702;7.276;2022-11-20T21:06:31;10.60;65.50
19947;DHT22;10135;50.702;7.276;2022-11-20T21:08:32;10.60;65.50
19947;DHT22;10135;50.702;7.276;2022-11-20T21:10:33;10.60;65.50
19947;DHT22;10135;50.702;7.276;2022-11-20T21:12:34;10.60;65.50
19947;DHT22;10135;50.702;7.276;2022-11-20T21:14:35;10.60;65.40
19947;DHT22;10135;50.702;7.276;2022-11-20T21:16:35;10.70;65.50
19947;DHT22;10135;50.702;7.276;2022-11-20T21:18:43;10.60;65.40
19947;DHT22;10135;50.702;7.276;2022-11-20T21:20:45;10.60;65.40